Flight Track Log - Related Links

Times and Time Zones

All times are in EDT time to prevent confusion due to time zone crossing. See the AAL2345 flight status page for this flight to view local times or setup timezone preferences in your user account.

Time Position Orientation Groundspeed Altitude Reporting Facility
EDT Latitude Longitude Course Direction KTS MPH feet Rate Location/Type
Thu 06:42:49 PM 41.9500 -87.8500 196° South 209 241 3,100  Level Chicago TRACON
Thu 06:43:49 PM 41.8667 -87.8500 180° South 257 296 4,900 1,817 Climbing Chicago TRACON
Thu 06:44:38 PM 41.8322 -87.8872 219° Southwest 257 296 6,400 2,162 Climbing Chicago Center
Thu 06:45:40 PM 41.7608 -87.9369 207° Southwest 284 327 8,900 2,758 Climbing Chicago Center
Thu 06:46:42 PM 41.6708 -87.9983 207° Southwest 304 350 12,100 2,226 Climbing Chicago Center
Thu 06:47:44 PM 41.5906 -88.0539 207° Southwest 324 373 13,500 1,790 Climbing Chicago Center
Thu 06:48:00 PM 41.4869 -88.4887 196° South  Level Estimated
Thu 06:48:46 PM 41.5008 -88.1142 207° Southwest 362 417 15,800  Level Chicago Center
Thu 06:49:48 PM 41.3897 -88.1872 206° Southwest 389 448 17,800 1,984 Climbing Chicago Center
Thu 06:50:50 PM 41.2864 -88.2333 199° South 399 459 19,900 1,887 Climbing Chicago Center
Thu 06:51:52 PM 41.1806 -88.2817 199° South 405 466 21,700 1,597 Climbing Chicago Center
Thu 06:52:54 PM 41.0731 -88.3311 199° South 409 471 23,200 1,536 Climbing Chicago Center
Thu 06:53:57 PM 40.9406 -88.3889 198° South 417 480 24,900 1,440 Climbing Chicago Center
Thu 06:54:59 PM 40.8292 -88.4406 199° South 426 490 26,200 968 Climbing Chicago Center
Thu 06:56:01 PM 40.7400 -88.5344 219° Southwest 424 488 26,900 677 Climbing Chicago Center
Thu 06:57:03 PM 40.6475 -88.6378 220° Southwest 432 497 27,600 968 Climbing Chicago Center
Thu 06:58:05 PM 40.5500 -88.7392 218° Southwest 444 511 28,900 1,210 Climbing Chicago Center
Thu 06:59:07 PM 40.4508 -88.8408 218° Southwest 447 514 30,100 1,113 Climbing Chicago Center
Thu 07:00:09 PM 40.3547 -88.9444 219° Southwest 446 513 31,200 919 Climbing Chicago Center
Thu 07:01:11 PM 40.2394 -89.0650 219° Southwest 441 507 32,000 387 Climbing Chicago Center
Thu 07:02:13 PM 40.1417 -89.1672 219° Southwest 446 513 32,000  Level Chicago Center
Thu 07:02:55 PM 40.0825 -89.2306 219° Southwest 445 512 32,000  Level Kansas City Center
Thu 07:03:57 PM 39.9842 -89.3325 218° Southwest 447 514 32,000  Level Kansas City Center
Thu 07:04:59 PM 39.8872 -89.4350 219° Southwest 448 516 32,000 435 Level Kansas City Center
Thu 07:06:01 PM 39.7697 -89.5572 219° Southwest 448 516 32,900 774 Climbing Kansas City Center
Thu 07:07:03 PM 39.6867 -89.6431 219° Southwest 446 513 33,600 532 Climbing Kansas City Center
Thu 07:08:05 PM 39.5722 -89.7603 218° Southwest 440 506 34,000 194 Climbing Kansas City Center
Thu 07:09:07 PM 39.4769 -89.8578 218° Southwest 438 504 34,000  Level Kansas City Center
Thu 07:10:09 PM 39.3817 -89.9564 219° Southwest 439 505 34,000  Level Kansas City Center
Thu 07:11:11 PM 39.2858 -90.0533 218° Southwest 439 505 34,000  Level Kansas City Center
Thu 07:12:13 PM 39.1894 -90.1517 218° Southwest 442 509 34,000  Level Kansas City Center
Thu 07:13:15 PM 39.0747 -90.2686 218° Southwest 441 507 34,000  Level Kansas City Center
Thu 07:14:17 PM 38.9789 -90.3656 218° Southwest 442 509 34,000  Level Kansas City Center
Thu 07:15:19 PM 38.8931 -90.4533 219° Southwest 439 505 34,000  Level Kansas City Center
Thu 07:16:21 PM 38.7911 -90.5869 226° Southwest 442 509 34,000  Level Kansas City Center
Thu 07:17:23 PM 38.7239 -90.6867 229° Southwest 445 512 34,000  Level Kansas City Center
Thu 07:18:25 PM 38.6289 -90.8231 228° Southwest 435 501 34,000  Level Kansas City Center
Thu 07:19:27 PM 38.5500 -90.9372 229° Southwest 433 498 34,000  Level Kansas City Center
Thu 07:20:29 PM 38.4706 -91.0522 229° Southwest 434 499 34,000  Level Kansas City Center
Thu 07:21:31 PM 38.3894 -91.1703 229° Southwest 438 504 34,000  Level Kansas City Center
Thu 07:22:33 PM 38.3092 -91.2856 228° Southwest 439 505 34,000  Level Kansas City Center
Thu 07:23:35 PM 38.2133 -91.4200 228° Southwest 433 498 34,000  Level Kansas City Center
Thu 07:24:37 PM 38.1342 -91.5353 229° Southwest 430 495 34,000  Level Kansas City Center
Thu 07:25:39 PM 38.0528 -91.6497 228° Southwest 432 497 34,000  Level Kansas City Center
Thu 07:26:41 PM 37.9706 -91.7661 228° Southwest 436 502 34,000  Level Kansas City Center
Thu 07:27:42 PM 37.8878 -91.8850 229° Southwest 443 510 34,000  Level Kansas City Center
Thu 07:28:44 PM 37.8047 -91.9997 228° Southwest 441 507 34,000  Level Kansas City Center
Thu 07:29:46 PM 37.7117 -92.1319 228° Southwest 438 504 34,000  Level Kansas City Center
Thu 07:30:48 PM 37.6397 -92.2325 228° Southwest 439 505 34,000  Level Kansas City Center
Thu 07:31:50 PM 37.5578 -92.3483 228° Southwest 439 505 34,000  Level Kansas City Center
Thu 07:32:52 PM 37.4589 -92.4872 228° Southwest 440 506 34,000  Level Kansas City Center
Thu 07:33:54 PM 37.3758 -92.6022 228° Southwest 441 507 34,000  Level Kansas City Center
Thu 07:34:56 PM 37.2917 -92.7142 227° Southwest 440 506 34,000  Level Kansas City Center
Thu 07:35:58 PM 37.2061 -92.8292 227° Southwest 445 512 34,000  Level Kansas City Center
Thu 07:36:59 PM 37.1217 -92.9456 228° Southwest 450 518 34,000  Level Kansas City Center
Thu 07:38:01 PM 37.0367 -93.0589 227° Southwest 448 516 34,000  Level Kansas City Center
Thu 07:39:03 PM 36.9242 -93.1347 208° Southwest 466 536 34,000  Level Kansas City Center
Thu 07:40:05 PM 36.7978 -93.2269 210° Southwest 461 531 34,000  Level Kansas City Center
Thu 07:41:07 PM 36.6894 -93.3094 211° Southwest 459 528 34,000  Level Kansas City Center
Thu 07:42:09 PM 36.5800 -93.3903 211° Southwest 459 528 34,000  Level Kansas City Center
Thu 07:43:11 PM 36.4697 -93.4758 212° Southwest 463 533 34,000  Level Kansas City Center
Thu 07:44:04 PM 36.3531 -93.5650 212° Southwest 470 541 34,000  Level Memphis Center
Thu 07:45:04 PM 36.2425 -93.6483 211° Southwest 470 541 34,000  Level Memphis Center
Thu 07:46:04 PM 36.1319 -93.7286 210° Southwest 470 541 34,000  Level Memphis Center
Thu 07:47:04 PM 36.0214 -93.8086 210° Southwest 470 541 34,000  Level Memphis Center
Thu 07:48:04 PM 35.9128 -93.8889 211° Southwest 464 534 34,000  Level Memphis Center
Thu 07:49:04 PM 35.8019 -93.9711 211° Southwest 464 534 34,000  Level Memphis Center
Thu 07:50:04 PM 35.6911 -94.0531 211° Southwest 464 534 34,000  Level Memphis Center
Thu 07:51:04 PM 35.5781 -94.1322 210° Southwest 464 534 34,000  Level Memphis Center
Thu 07:52:04 PM 35.4692 -94.2142 212° Southwest 464 534 34,000  Level Memphis Center
Thu 07:53:04 PM 35.3581 -94.2981 212° Southwest 464 534 34,000  Level Memphis Center
Thu 07:54:04 PM 35.2650 -94.4031 223° Southwest 458 527 34,000  Level Memphis Center
Thu 07:56:22 PM 35.0483 -94.6417 222° Southwest 463 533 34,000  Level Fort Worth Center
Thu 07:57:22 PM 34.9525 -94.7461 222° Southwest 468 539 34,000  Level Fort Worth Center
Thu 07:58:22 PM 34.8628 -94.8450 222° Southwest 479 551 34,000  Level Fort Worth Center
Thu 07:59:22 PM 34.7647 -94.9467 220° Southwest 480 552 34,000 -150 Level Fort Worth Center
Thu 08:00:22 PM 34.6667 -95.0528 222° Southwest 480 552 33,700 -800 Descending Fort Worth Center
Thu 08:01:22 PM 34.5706 -95.1589 222° Southwest 480 552 32,400 -1,350 Descending Fort Worth Center
Thu 08:02:22 PM 34.4722 -95.2622 221° Southwest 480 552 31,000 -1,450 Descending Fort Worth Center
Thu 08:03:22 PM 34.3736 -95.3653 221° Southwest 480 552 29,500 -1,500 Descending Fort Worth Center
Thu 08:04:22 PM 34.2731 -95.4708 221° Southwest 480 552 28,000 -1,550 Descending Fort Worth Center
Thu 08:05:22 PM 34.1600 -95.5889 221° Southwest 480 552 26,400 -1,563 Descending Fort Worth Center
Thu 08:06:21 PM 34.0717 -95.6783 220° Southwest 480 552 24,900 -1,900 Descending Fort Worth Center
Thu 08:07:22 PM 33.9750 -95.7856 223° Southwest 474 545 22,600 -2,231 Descending Fort Worth Center
Thu 08:08:22 PM 33.8844 -95.8872 223° Southwest 463 533 20,400 -2,350 Descending Fort Worth Center
Thu 08:09:22 PM 33.7958 -95.9839 222° Southwest 443 510 17,900 -2,750 Descending Fort Worth Center
Thu 08:10:22 PM 33.7031 -96.0853 222° Southwest 420 483 14,900 -2,550 Descending Fort Worth Center
Thu 08:11:22 PM 33.6203 -96.1586 216° Southwest 415 478 12,800 -1,750 Descending Fort Worth Center
Thu 08:12:22 PM 33.5231 -96.2325 212° Southwest 398 458 11,400 -900 Descending Fort Worth Center
Thu 08:13:22 PM 33.4483 -96.2881 212° Southwest 363 418 11,000 -300 Descending Fort Worth Center
Thu 08:14:22 PM 33.3675 -96.3464 211° Southwest 335 386 10,800 -750 Descending Fort Worth Center
Thu 08:15:22 PM 33.3117 -96.4067 222° Southwest 307 353 9,500 -1,450 Descending Fort Worth Center
Thu 08:16:22 PM 33.2853 -96.5114 253° West 292 336 7,900 -1,563 Descending Fort Worth Center
Thu 08:17:21 PM 33.2608 -96.6036 252° West 292 336 6,400 -1,350 Descending Fort Worth Center
Thu 08:18:22 PM 33.2383 -96.6931 253° West 287 330 5,200 -700 Descending Fort Worth Center
Thu 08:19:21 PM 33.2117 -96.7803 250° West 287 330 5,000 -100 Descending Fort Worth Center
Thu 08:20:22 PM 33.1869 -96.8697 252° West 287 330 5,000 -350 Level Fort Worth Center
Thu 08:21:21 PM 33.1625 -96.9569 252° West 287 330 4,300 -504 Descending Fort Worth Center
Thu 08:22:21 PM 33.1292 -97.0239 239° Southwest 255 293 4,000 -450 Descending Fort Worth Center
Thu 08:23:21 PM 33.0728 -97.0292 184° South 207 238 3,400 -700 Descending Fort Worth Center
Thu 08:24:21 PM 33.0228 -97.0269 178° South 185 213 2,600 -850 Descending Fort Worth Center
Thu 08:25:21 PM 32.9747 -97.0247 178° South 180 207 1,700 -793 Descending Fort Worth Center
Thu 08:26:22 PM 32.9331 -97.0272 183° South 165 190 1,000 -689 Descending Fort Worth Center
Thu 08:28:00 PM 32.8968 -97.0380 202° Southwest  Level Estimated
Thu 08:35:00 PM 32.8968 -97.0380 202° Southwest  Level Estimated
Thu 08:36:00 PM 32.8968 -97.0380 202° Southwest  Level Estimated

Login

Don't have an account? Register now (free) for customized features, flight alerts, and more!